sensor_id;sensor_type;location;lat;lon;timestamp;temperature;humidity
16305;DHT22;8261;47.678;-122.174;2023-07-16T00:00:24;33.90;84.00
16305;DHT22;8261;47.678;-122.174;2023-07-16T00:02:55;33.80;81.10
16305;DHT22;8261;47.678;-122.174;2023-07-16T00:05:26;33.90;81.10
16305;DHT22;8261;47.678;-122.174;2023-07-16T00:07:59;33.90;82.70
16305;DHT22;8261;47.678;-122.174;2023-07-16T00:10:29;34.00;80.80
16305;DHT22;8261;47.678;-122.174;2023-07-16T00:13:00;33.90;76.70
16305;DHT22;8261;47.678;-122.174;2023-07-16T00:15:31;33.80;76.80
16305;DHT22;8261;47.678;-122.174;2023-07-16T00:18:02;33.70;77.60
16305;DHT22;8261;47.678;-122.174;2023-07-16T00:20:34;33.50;78.80
16305;DHT22;8261;47.678;-122.174;2023-07-16T00:23:07;33.40;79.80
16305;DHT22;8261;47.678;-122.174;2023-07-16T00:25:37;33.30;80.70
16305;DHT22;8261;47.678;-122.174;2023-07-16T00:28:08;33.30;78.20
16305;DHT22;8261;47.678;-122.174;2023-07-16T00:30:40;33.20;82.30
16305;DHT22;8261;47.678;-122.174;2023-07-16T00:33:11;33.30;81.00
16305;DHT22;8261;47.678;-122.174;2023-07-16T00:35:47;33.30;79.70
16305;DHT22;8261;47.678;-122.174;2023-07-16T00:38:20;33.00;81.90
16305;DHT22;8261;47.678;-122.174;2023-07-16T00:40:51;32.90;82.60
16305;DHT22;8261;47.678;-122.174;2023-07-16T00:43:22;32.70;80.80
16305;DHT22;8261;47.678;-122.174;2023-07-16T00:45:53;32.80;82.00
16305;DHT22;8261;47.678;-122.174;2023-07-16T00:48:24;32.60;81.30
16305;DHT22;8261;47.678;-122.174;2023-07-16T00:50:56;32.70;82.60
16305;DHT22;8261;47.678;-122.174;2023-07-16T00:53:29;32.70;81.70
16305;DHT22;8261;47.678;-122.174;2023-07-16T00:56:00;32.70;83.10
16305;DHT22;8261;47.678;-122.174;2023-07-16T00:58:32;32.60;82.50
16305;DHT22;8261;47.678;-122.174;2023-07-16T01:01:03;32.70;83.30
16305;DHT22;8261;47.678;-122.174;2023-07-16T01:03:34;33.00;82.50
16305;DHT22;8261;47.678;-122.174;2023-07-16T01:06:12;33.50;84.60
16305;DHT22;8261;47.678;-122.174;2023-07-16T01:08:52;33.80;82.90
16305;DHT22;8261;47.678;-122.174;2023-07-16T01:11:26;33.90;83.00
16305;DHT22;8261;47.678;-122.174;2023-07-16T01:13:58;33.80;81.40
16305;DHT22;8261;47.678;-122.174;2023-07-16T01:16:30;33.80;81.80
16305;DHT22;8261;47.678;-122.174;2023-07-16T01:19:01;33.90;81.60
16305;DHT22;8261;47.678;-122.174;2023-07-16T01:21:37;34.00;81.50
16305;DHT22;8261;47.678;-122.174;2023-07-16T01:24:36;33.70;81.70
16305;DHT22;8261;47.678;-122.174;2023-07-16T01:27:35;33.70;80.40
16305;DHT22;8261;47.678;-122.174;2023-07-16T01:30:16;33.90;81.80
16305;DHT22;8261;47.678;-122.174;2023-07-16T01:32:49;33.70;81.40
16305;DHT22;8261;47.678;-122.174;2023-07-16T01:35:21;33.50;81.50
16305;DHT22;8261;47.678;-122.174;2023-07-16T01:37:52;33.30;81.50
16305;DHT22;8261;47.678;-122.174;2023-07-16T01:40:23;32.90;80.00
16305;DHT22;8261;47.678;-122.174;2023-07-16T01:42:54;33.10;79.80
16305;DHT22;8261;47.678;-122.174;2023-07-16T01:45:26;33.60;80.30
16305;DHT22;8261;47.678;-122.174;2023-07-16T01:48:05;34.00;78.30
16305;DHT22;8261;47.678;-122.174;2023-07-16T01:50:39;33.90;78.50
16305;DHT22;8261;47.678;-122.174;2023-07-16T01:53:10;33.20;79.40
16305;DHT22;8261;47.678;-122.174;2023-07-16T01:55:41;32.50;80.80
16305;DHT22;8261;47.678;-122.174;2023-07-16T01:58:12;31.90;82.40
16305;DHT22;8261;47.678;-122.174;2023-07-16T02:00:44;31.10;81.90
16305;DHT22;8261;47.678;-122.174;2023-07-16T02:03:16;30.50;83.50
16305;DHT22;8261;47.678;-122.174;2023-07-16T02:05:48;30.30;83.80
16305;DHT22;8261;47.678;-122.174;2023-07-16T02:08:19;30.20;85.10
16305;DHT22;8261;47.678;-122.174;2023-07-16T02:10:50;30.00;85.20
16305;DHT22;8261;47.678;-122.174;2023-07-16T02:13:20;29.70;86.50
16305;DHT22;8261;47.678;-122.174;2023-07-16T02:15:53;29.30;84.50
16305;DHT22;8261;47.678;-122.174;2023-07-16T02:18:24;28.90;83.20
16305;DHT22;8261;47.678;-122.174;2023-07-16T02:20:55;28.40;81.90
16305;DHT22;8261;47.678;-122.174;2023-07-16T02:23:25;28.00;82.20
16305;DHT22;8261;47.678;-122.174;2023-07-16T02:25:56;27.70;82.40
16305;DHT22;8261;47.678;-122.174;2023-07-16T02:28:27;27.50;82.40
16305;DHT22;8261;47.678;-122.174;2023-07-16T02:30:59;27.30;82.70
16305;DHT22;8261;47.678;-122.174;2023-07-16T02:33:30;27.20;83.90
16305;DHT22;8261;47.678;-122.174;2023-07-16T02:36:01;27.00;84.60
16305;DHT22;8261;47.678;-122.174;2023-07-16T02:38:32;26.70;84.90
16305;DHT22;8261;47.678;-122.174;2023-07-16T02:41:03;26.50;87.20
16305;DHT22;8261;47.678;-122.174;2023-07-16T02:43:34;26.40;87.50
16305;DHT22;8261;47.678;-122.174;2023-07-16T02:46:06;26.30;87.90
16305;DHT22;8261;47.678;-122.174;2023-07-16T02:48:37;26.20;88.40
16305;DHT22;8261;47.678;-122.174;2023-07-16T02:51:08;26.10;89.20
16305;DHT22;8261;47.678;-122.174;2023-07-16T02:53:39;25.90;90.00
16305;DHT22;8261;47.678;-122.174;2023-07-16T02:56:09;25.90;89.90
16305;DHT22;8261;47.678;-122.174;2023-07-16T02:58:41;25.70;90.40
16305;DHT22;8261;47.678;-122.174;2023-07-16T03:01:13;25.60;90.80
16305;DHT22;8261;47.678;-122.174;2023-07-16T03:03:44;25.50;90.40
16305;DHT22;8261;47.678;-122.174;2023-07-16T03:06:15;25.30;90.90
16305;DHT22;8261;47.678;-122.174;2023-07-16T03:08:49;25.20;91.20
16305;DHT22;8261;47.678;-122.174;2023-07-16T03:11:20;25.00;90.90
16305;DHT22;8261;47.678;-122.174;2023-07-16T03:13:51;25.00;91.20
16305;DHT22;8261;47.678;-122.174;2023-07-16T03:16:23;24.80;91.40
16305;DHT22;8261;47.678;-122.174;2023-07-16T03:18:54;24.80;91.60
16305;DHT22;8261;47.678;-122.174;2023-07-16T03:21:28;24.70;91.80
16305;DHT22;8261;47.678;-122.174;2023-07-16T03:23:59;24.70;91.80
16305;DHT22;8261;47.678;-122.174;2023-07-16T03:26:29;24.70;91.80
16305;DHT22;8261;47.678;-122.174;2023-07-16T03:29:00;24.70;92.20
16305;DHT22;8261;47.678;-122.174;2023-07-16T03:31:33;24.60;92.50
16305;DHT22;8261;47.678;-122.174;2023-07-16T03:34:04;24.50;92.30
16305;DHT22;8261;47.678;-122.174;2023-07-16T03:36:35;24.40;92.70
16305;DHT22;8261;47.678;-122.174;2023-07-16T03:39:05;24.30;93.10
16305;DHT22;8261;47.678;-122.174;2023-07-16T03:41:36;24.20;93.80
16305;DHT22;8261;47.678;-122.174;2023-07-16T03:44:07;24.10;93.40
16305;DHT22;8261;47.678;-122.174;2023-07-16T03:46:39;23.90;93.80
16305;DHT22;8261;47.678;-122.174;2023-07-16T03:49:10;23.70;94.30
16305;DHT22;8261;47.678;-122.174;2023-07-16T03:51:41;23.50;94.40
16305;DHT22;8261;47.678;-122.174;2023-07-16T03:54:12;23.30;94.40
16305;DHT22;8261;47.678;-122.174;2023-07-16T03:56:43;23.20;94.70
16305;DHT22;8261;47.678;-122.174;2023-07-16T03:59:14;23.20;94.70
16305;DHT22;8261;47.678;-122.174;2023-07-16T04:01:46;23.10;94.80
16305;DHT22;8261;47.678;-122.174;2023-07-16T04:04:17;23.00;94.90
16305;DHT22;8261;47.678;-122.174;2023-07-16T04:06:48;22.90;95.10
16305;DHT22;8261;47.678;-122.174;2023-07-16T04:09:19;22.70;94.90
16305;DHT22;8261;47.678;-122.174;2023-07-16T04:11:50;22.70;95.30
16305;DHT22;8261;47.678;-122.174;2023-07-16T04:14:20;22.60;95.20
16305;DHT22;8261;47.678;-122.174;2023-07-16T04:16:53;22.50;95.80
16305;DHT22;8261;47.678;-122.174;2023-07-16T04:19:24;22.30;96.30
16305;DHT22;8261;47.678;-122.174;2023-07-16T04:21:55;22.20;96.00
16305;DHT22;8261;47.678;-122.174;2023-07-16T04:24:26;22.20;96.10
16305;DHT22;8261;47.678;-122.174;2023-07-16T04:26:58;22.10;96.20
16305;DHT22;8261;47.678;-122.174;2023-07-16T04:29:29;22.10;96.70
16305;DHT22;8261;47.678;-122.174;2023-07-16T04:32:01;22.00;97.20
16305;DHT22;8261;47.678;-122.174;2023-07-16T04:34:32;22.00;97.30
16305;DHT22;8261;47.678;-122.174;2023-07-16T04:37:03;21.90;97.70
16305;DHT22;8261;47.678;-122.174;2023-07-16T04:39:34;21.90;97.90
16305;DHT22;8261;47.678;-122.174;2023-07-16T04:42:05;21.80;98.30
16305;DHT22;8261;47.678;-122.174;2023-07-16T04:44:36;21.70;98.50
16305;DHT22;8261;47.678;-122.174;2023-07-16T04:47:09;21.60;99.10
16305;DHT22;8261;47.678;-122.174;2023-07-16T04:49:40;21.50;99.50
16305;DHT22;8261;47.678;-122.174;2023-07-16T04:52:10;21.50;99.80
16305;DHT22;8261;47.678;-122.174;2023-07-16T04:54:41;21.50;99.90
16305;DHT22;8261;47.678;-122.174;2023-07-16T04:57:12;21.50;99.90
16305;DHT22;8261;47.678;-122.174;2023-07-16T04:59:43;21.40;99.90
16305;DHT22;8261;47.678;-122.174;2023-07-16T05:02:15;21.40;99.90
16305;DHT22;8261;47.678;-122.174;2023-07-16T05:04:46;21.30;99.90
16305;DHT22;8261;47.678;-122.174;2023-07-16T05:07:17;21.20;99.90
16305;DHT22;8261;47.678;-122.174;2023-07-16T05:09:48;21.20;99.90
16305;DHT22;8261;47.678;-122.174;2023-07-16T05:12:19;21.20;99.90
16305;DHT22;8261;47.678;-122.174;2023-07-16T05:14:51;21.10;99.90
16305;DHT22;8261;47.678;-122.174;2023-07-16T05:17:23;21.00;99.90
16305;DHT22;8261;47.678;-122.174;2023-07-16T05:19:54;20.90;99.90
16305;DHT22;8261;47.678;-122.174;2023-07-16T05:22:25;20.80;99.90
16305;DHT22;8261;47.678;-122.174;2023-07-16T05:24:56;20.60;99.90
16305;DHT22;8261;47.678;-122.174;2023-07-16T05:27:27;20.60;99.90
16305;DHT22;8261;47.678;-122.174;2023-07-16T05:29:58;20.50;99.90
16305;DHT22;8261;47.678;-122.174;2023-07-16T05:32:30;20.40;99.90
16305;DHT22;8261;47.678;-122.174;2023-07-16T05:35:01;20.40;99.90
16305;DHT22;8261;47.678;-122.174;2023-07-16T05:37:33;20.30;99.90
16305;DHT22;8261;47.678;-122.174;2023-07-16T05:40:04;20.30;99.90
16305;DHT22;8261;47.678;-122.174;2023-07-16T05:42:37;20.20;99.90
16305;DHT22;8261;47.678;-122.174;2023-07-16T05:45:09;20.20;99.90
16305;DHT22;8261;47.678;-122.174;2023-07-16T05:47:41;20.10;99.90
16305;DHT22;8261;47.678;-122.174;2023-07-16T05:50:12;20.00;99.90
16305;DHT22;8261;47.678;-122.174;2023-07-16T05:52:43;20.00;99.90
16305;DHT22;8261;47.678;-122.174;2023-07-16T05:55:17;19.90;99.90
16305;DHT22;8261;47.678;-122.174;2023-07-16T05:57:47;19.80;99.90
16305;DHT22;8261;47.678;-122.174;2023-07-16T06:00:18;19.80;99.90
16305;DHT22;8261;47.678;-122.174;2023-07-16T06:02:51;19.80;99.90
16305;DHT22;8261;47.678;-122.174;2023-07-16T06:05:22;19.70;99.90
16305;DHT22;8261;47.678;-122.174;2023-07-16T06:07:53;19.70;99.90
16305;DHT22;8261;47.678;-122.174;2023-07-16T06:10:24;19.70;99.90
16305;DHT22;8261;47.678;-122.174;2023-07-16T06:12:55;19.60;99.90
16305;DHT22;8261;47.678;-122.174;2023-07-16T06:15:26;19.60;99.90
16305;DHT22;8261;47.678;-122.174;2023-07-16T06:17:58;19.50;99.90
16305;DHT22;8261;47.678;-122.174;2023-07-16T06:20:29;19.40;99.90
16305;DHT22;8261;47.678;-122.174;2023-07-16T06:23:00;19.40;99.90
16305;DHT22;8261;47.678;-122.174;2023-07-16T06:25:31;19.30;99.90
16305;DHT22;8261;47.678;-122.174;2023-07-16T06:28:02;19.20;99.90
16305;DHT22;8261;47.678;-122.174;2023-07-16T06:30:33;19.20;99.90
16305;DHT22;8261;47.678;-122.174;2023-07-16T06:33:05;19.20;99.90
16305;DHT22;8261;47.678;-122.174;2023-07-16T06:35:36;19.20;99.90
16305;DHT22;8261;47.678;-122.174;2023-07-16T06:38:07;19.20;99.90
16305;DHT22;8261;47.678;-122.174;2023-07-16T06:40:38;19.20;99.90
16305;DHT22;8261;47.678;-122.174;2023-07-16T06:43:09;19.20;99.90
16305;DHT22;8261;47.678;-122.174;2023-07-16T06:45:40;19.20;99.90
16305;DHT22;8261;47.678;-122.174;2023-07-16T06:48:12;19.20;99.90
16305;DHT22;8261;47.678;-122.174;2023-07-16T06:50:43;19.10;99.90
16305;DHT22;8261;47.678;-122.174;2023-07-16T06:53:14;19.10;99.90
16305;DHT22;8261;47.678;-122.174;2023-07-16T06:55:47;19.20;99.90
16305;DHT22;8261;47.678;-122.174;2023-07-16T06:58:18;19.10;99.90
16305;DHT22;8261;47.678;-122.174;2023-07-16T07:00:48;19.20;99.90
16305;DHT22;8261;47.678;-122.174;2023-07-16T07:03:21;19.00;99.90
16305;DHT22;8261;47.678;-122.174;2023-07-16T07:05:52;19.00;99.90
16305;DHT22;8261;47.678;-122.174;2023-07-16T07:08:23;19.00;99.90
16305;DHT22;8261;47.678;-122.174;2023-07-16T07:10:54;18.90;99.90
16305;DHT22;8261;47.678;-122.174;2023-07-16T07:13:25;18.90;99.90
16305;DHT22;8261;47.678;-122.174;2023-07-16T07:15:55;18.90;99.90
16305;DHT22;8261;47.678;-122.174;2023-07-16T07:18:28;18.80;99.90
16305;DHT22;8261;47.678;-122.174;2023-07-16T07:20:59;18.80;99.90
16305;DHT22;8261;47.678;-122.174;2023-07-16T07:23:30;18.80;99.90
16305;DHT22;8261;47.678;-122.174;2023-07-16T07:26:01;18.80;99.90
16305;DHT22;8261;47.678;-122.174;2023-07-16T07:28:32;18.80;99.90
16305;DHT22;8261;47.678;-122.174;2023-07-16T07:31:03;18.80;99.90
16305;DHT22;8261;47.678;-122.174;2023-07-16T07:33:35;18.80;99.90
16305;DHT22;8261;47.678;-122.174;2023-07-16T07:36:06;18.80;99.90
16305;DHT22;8261;47.678;-122.174;2023-07-16T07:38:37;18.80;99.90
16305;DHT22;8261;47.678;-122.174;2023-07-16T07:41:08;18.80;99.90
16305;DHT22;8261;47.678;-122.174;2023-07-16T07:43:38;18.70;99.90
16305;DHT22;8261;47.678;-122.174;2023-07-16T07:46:10;18.60;99.90
16305;DHT22;8261;47.678;-122.174;2023-07-16T07:48:44;18.60;99.90
16305;DHT22;8261;47.678;-122.174;2023-07-16T07:51:16;18.70;99.90
16305;DHT22;8261;47.678;-122.174;2023-07-16T07:53:48;18.60;99.90
16305;DHT22;8261;47.678;-122.174;2023-07-16T07:56:20;18.60;99.90
16305;DHT22;8261;47.678;-122.174;2023-07-16T07:58:51;18.50;99.90
16305;DHT22;8261;47.678;-122.174;2023-07-16T08:01:23;18.50;99.90
16305;DHT22;8261;47.678;-122.174;2023-07-16T08:03:55;18.40;99.90
16305;DHT22;8261;47.678;-122.174;2023-07-16T08:06:26;18.40;99.90
16305;DHT22;8261;47.678;-122.174;2023-07-16T08:08:57;18.30;99.90
16305;DHT22;8261;47.678;-122.174;2023-07-16T08:11:28;18.30;99.90
16305;DHT22;8261;47.678;-122.174;2023-07-16T08:13:59;18.30;99.90
16305;DHT22;8261;47.678;-122.174;2023-07-16T08:16:29;18.10;99.90
16305;DHT22;8261;47.678;-122.174;2023-07-16T08:19:02;18.10;99.90
16305;DHT22;8261;47.678;-122.174;2023-07-16T08:21:33;18.00;99.90
16305;DHT22;8261;47.678;-122.174;2023-07-16T08:24:05;17.90;99.90
16305;DHT22;8261;47.678;-122.174;2023-07-16T08:26:36;17.90;99.90
16305;DHT22;8261;47.678;-122.174;2023-07-16T08:29:07;17.90;99.90
16305;DHT22;8261;47.678;-122.174;2023-07-16T08:31:38;18.00;99.90
16305;DHT22;8261;47.678;-122.174;2023-07-16T08:34:10;17.90;99.90
16305;DHT22;8261;47.678;-122.174;2023-07-16T08:36:41;17.90;99.90
16305;DHT22;8261;47.678;-122.174;2023-07-16T08:39:12;17.90;99.90
16305;DHT22;8261;47.678;-122.174;2023-07-16T08:41:46;17.80;99.90
16305;DHT22;8261;47.678;-122.174;2023-07-16T08:44:17;17.80;99.90
16305;DHT22;8261;47.678;-122.174;2023-07-16T08:46:48;17.90;99.90
16305;DHT22;8261;47.678;-122.174;2023-07-16T08:49:22;17.80;99.90
16305;DHT22;8261;47.678;-122.174;2023-07-16T08:51:55;17.70;99.90
16305;DHT22;8261;47.678;-122.174;2023-07-16T08:54:26;17.70;99.90
16305;DHT22;8261;47.678;-122.174;2023-07-16T08:56:58;17.60;99.90
16305;DHT22;8261;47.678;-122.174;2023-07-16T08:59:29;17.50;99.90
16305;DHT22;8261;47.678;-122.174;2023-07-16T09:02:01;17.50;99.90
16305;DHT22;8261;47.678;-122.174;2023-07-16T09:04:34;17.40;99.90
16305;DHT22;8261;47.678;-122.174;2023-07-16T09:07:05;17.30;99.90
16305;DHT22;8261;47.678;-122.174;2023-07-16T09:09:36;17.30;99.90
16305;DHT22;8261;47.678;-122.174;2023-07-16T09:12:11;17.30;99.90
16305;DHT22;8261;47.678;-122.174;2023-07-16T09:14:42;17.20;99.90
16305;DHT22;8261;47.678;-122.174;2023-07-16T09:17:21;17.10;99.90
16305;DHT22;8261;47.678;-122.174;2023-07-16T09:19:54;17.10;99.90
16305;DHT22;8261;47.678;-122.174;2023-07-16T09:22:25;17.00;99.90
16305;DHT22;8261;47.678;-122.174;2023-07-16T09:24:55;17.00;99.90
16305;DHT22;8261;47.678;-122.174;2023-07-16T09:27:28;17.00;99.90
16305;DHT22;8261;47.678;-122.174;2023-07-16T09:29:59;16.90;99.90
16305;DHT22;8261;47.678;-122.174;2023-07-16T09:32:34;16.90;99.90
16305;DHT22;8261;47.678;-122.174;2023-07-16T09:35:10;16.80;99.90
16305;DHT22;8261;47.678;-122.174;2023-07-16T09:37:41;16.70;99.90
16305;DHT22;8261;47.678;-122.174;2023-07-16T09:40:12;16.70;99.90
16305;DHT22;8261;47.678;-122.174;2023-07-16T09:42:44;16.60;99.90
16305;DHT22;8261;47.678;-122.174;2023-07-16T09:45:18;16.60;99.90
16305;DHT22;8261;47.678;-122.174;2023-07-16T09:47:49;16.60;99.90
16305;DHT22;8261;47.678;-122.174;2023-07-16T09:50:24;16.70;99.90
16305;DHT22;8261;47.678;-122.174;2023-07-16T09:52:56;16.60;99.90
16305;DHT22;8261;47.678;-122.174;2023-07-16T09:55:28;16.60;99.90
16305;DHT22;8261;47.678;-122.174;2023-07-16T09:58:03;16.60;99.90
16305;DHT22;8261;47.678;-122.174;2023-07-16T10:00:37;16.60;99.90
16305;DHT22;8261;47.678;-122.174;2023-07-16T10:03:08;16.60;99.90
16305;DHT22;8261;47.678;-122.174;2023-07-16T10:05:41;16.60;99.90
16305;DHT22;8261;47.678;-122.174;2023-07-16T10:08:18;16.60;99.90
16305;DHT22;8261;47.678;-122.174;2023-07-16T10:10:53;16.50;99.90
16305;DHT22;8261;47.678;-122.174;2023-07-16T10:13:26;16.50;99.90
16305;DHT22;8261;47.678;-122.174;2023-07-16T10:15:58;16.50;99.90
16305;DHT22;8261;47.678;-122.174;2023-07-16T10:18:30;16.50;99.90
16305;DHT22;8261;47.678;-122.174;2023-07-16T10:21:05;16.50;99.90
16305;DHT22;8261;47.678;-122.174;2023-07-16T10:23:40;16.40;99.90
16305;DHT22;8261;47.678;-122.174;2023-07-16T10:26:13;16.50;99.90
16305;DHT22;8261;47.678;-122.174;2023-07-16T10:28:47;16.50;99.90
16305;DHT22;8261;47.678;-122.174;2023-07-16T10:31:19;16.50;99.90
16305;DHT22;8261;47.678;-122.174;2023-07-16T10:34:01;16.40;99.90
16305;DHT22;8261;47.678;-122.174;2023-07-16T10:36:39;16.40;99.90
16305;DHT22;8261;47.678;-122.174;2023-07-16T10:39:10;16.40;99.90
16305;DHT22;8261;47.678;-122.174;2023-07-16T10:41:41;16.50;99.90
16305;DHT22;8261;47.678;-122.174;2023-07-16T10:44:14;16.40;99.90
16305;DHT22;8261;47.678;-122.174;2023-07-16T10:46:45;16.30;99.90
16305;DHT22;8261;47.678;-122.174;2023-07-16T10:49:16;16.30;99.90
16305;DHT22;8261;47.678;-122.174;2023-07-16T10:51:59;16.40;99.90
16305;DHT22;8261;47.678;-122.174;2023-07-16T10:54:30;16.40;99.90
16305;DHT22;8261;47.678;-122.174;2023-07-16T10:57:01;16.40;99.90
16305;DHT22;8261;47.678;-122.174;2023-07-16T10:59:33;16.40;99.90
16305;DHT22;8261;47.678;-122.174;2023-07-16T11:02:11;16.40;99.90
16305;DHT22;8261;47.678;-122.174;2023-07-16T11:04:42;16.40;99.90
16305;DHT22;8261;47.678;-122.174;2023-07-16T11:07:15;16.40;99.90
16305;DHT22;8261;47.678;-122.174;2023-07-16T11:09:48;16.40;99.90
16305;DHT22;8261;47.678;-122.174;2023-07-16T11:12:20;16.40;99.90
16305;DHT22;8261;47.678;-122.174;2023-07-16T11:14:54;16.40;99.90
16305;DHT22;8261;47.678;-122.174;2023-07-16T11:17:26;16.40;99.90
16305;DHT22;8261;47.678;-122.174;2023-07-16T11:19:59;16.30;99.90
16305;DHT22;8261;47.678;-122.174;2023-07-16T11:22:32;16.30;99.90
16305;DHT22;8261;47.678;-122.174;2023-07-16T11:25:04;16.30;99.90
16305;DHT22;8261;47.678;-122.174;2023-07-16T11:27:42;16.30;99.90
16305;DHT22;8261;47.678;-122.174;2023-07-16T11:30:13;16.30;99.90
16305;DHT22;8261;47.678;-122.174;2023-07-16T11:32:46;16.30;99.90
16305;DHT22;8261;47.678;-122.174;2023-07-16T11:35:19;16.30;99.90
16305;DHT22;8261;47.678;-122.174;2023-07-16T11:37:51;16.20;99.90
16305;DHT22;8261;47.678;-122.174;2023-07-16T11:40:22;16.20;99.90
16305;DHT22;8261;47.678;-122.174;2023-07-16T11:42:53;16.20;99.90
16305;DHT22;8261;47.678;-122.174;2023-07-16T11:45:25;16.10;99.90
16305;DHT22;8261;47.678;-122.174;2023-07-16T11:47:56;16.10;99.90
16305;DHT22;8261;47.678;-122.174;2023-07-16T11:50:28;16.10;99.90
16305;DHT22;8261;47.678;-122.174;2023-07-16T11:53:01;16.00;99.90
16305;DHT22;8261;47.678;-122.174;2023-07-16T11:55:32;16.00;99.90
16305;DHT22;8261;47.678;-122.174;2023-07-16T11:58:04;16.00;99.90
16305;DHT22;8261;47.678;-122.174;2023-07-16T12:00:35;15.90;99.90
16305;DHT22;8261;47.678;-122.174;2023-07-16T12:03:06;16.00;99.90
16305;DHT22;8261;47.678;-122.174;2023-07-16T12:05:37;15.90;99.90
16305;DHT22;8261;47.678;-122.174;2023-07-16T12:08:22;15.90;99.90
16305;DHT22;8261;47.678;-122.174;2023-07-16T12:10:54;15.90;99.90
16305;DHT22;8261;47.678;-122.174;2023-07-16T12:13:29;15.90;99.90
16305;DHT22;8261;47.678;-122.174;2023-07-16T12:16:00;15.80;99.90
16305;DHT22;8261;47.678;-122.174;2023-07-16T12:18:31;15.70;99.90
16305;DHT22;8261;47.678;-122.174;2023-07-16T12:21:02;15.70;99.90
16305;DHT22;8261;47.678;-122.174;2023-07-16T12:23:35;15.60;99.90
16305;DHT22;8261;47.678;-122.174;2023-07-16T12:26:05;15.60;99.90
16305;DHT22;8261;47.678;-122.174;2023-07-16T12:28:37;15.60;99.90
16305;DHT22;8261;47.678;-122.174;2023-07-16T12:31:08;15.60;99.90
16305;DHT22;8261;47.678;-122.174;2023-07-16T12:33:38;15.60;99.90
16305;DHT22;8261;47.678;-122.174;2023-07-16T12:36:09;15.60;99.90
16305;DHT22;8261;47.678;-122.174;2023-07-16T12:38:42;15.60;99.90
16305;DHT22;8261;47.678;-122.174;2023-07-16T12:41:13;15.50;99.90
16305;DHT22;8261;47.678;-122.174;2023-07-16T12:43:45;15.50;99.90
16305;DHT22;8261;47.678;-122.174;2023-07-16T12:46:16;15.50;99.90
16305;DHT22;8261;47.678;-122.174;2023-07-16T12:48:47;15.50;99.90
16305;DHT22;8261;47.678;-122.174;2023-07-16T12:51:18;15.50;99.90
16305;DHT22;8261;47.678;-122.174;2023-07-16T12:53:50;15.50;99.90
16305;DHT22;8261;47.678;-122.174;2023-07-16T12:56:21;15.50;99.90
16305;DHT22;8261;47.678;-122.174;2023-07-16T12:58:52;15.40;99.90
16305;DHT22;8261;47.678;-122.174;2023-07-16T13:01:23;15.40;99.90
16305;DHT22;8261;47.678;-122.174;2023-07-16T13:03:53;15.50;99.90
16305;DHT22;8261;47.678;-122.174;2023-07-16T13:06:24;15.40;99.90
16305;DHT22;8261;47.678;-122.174;2023-07-16T13:08:57;15.50;99.90
16305;DHT22;8261;47.678;-122.174;2023-07-16T13:11:28;15.40;99.90
16305;DHT22;8261;47.678;-122.174;2023-07-16T13:13:58;15.50;99.90
16305;DHT22;8261;47.678;-122.174;2023-07-16T13:16:29;15.50;99.90
16305;DHT22;8261;47.678;-122.174;2023-07-16T13:19:01;15.50;99.90
16305;DHT22;8261;47.678;-122.174;2023-07-16T13:21:32;15.40;99.90
16305;DHT22;8261;47.678;-122.174;2023-07-16T13:24:05;15.40;99.90
16305;DHT22;8261;47.678;-122.174;2023-07-16T13:26:37;15.40;99.90
16305;DHT22;8261;47.678;-122.174;2023-07-16T13:29:07;15.50;99.90
16305;DHT22;8261;47.678;-122.174;2023-07-16T13:31:38;15.50;99.90
16305;DHT22;8261;47.678;-122.174;2023-07-16T13:34:09;15.50;99.90
16305;DHT22;8261;47.678;-122.174;2023-07-16T13:36:40;15.50;99.90
16305;DHT22;8261;47.678;-122.174;2023-07-16T13:39:12;15.60;99.90
16305;DHT22;8261;47.678;-122.174;2023-07-16T13:41:43;15.70;99.90
16305;DHT22;8261;47.678;-122.174;2023-07-16T13:44:14;15.70;99.90
16305;DHT22;8261;47.678;-122.174;2023-07-16T13:46:45;15.70;99.90
16305;DHT22;8261;47.678;-122.174;2023-07-16T13:49:16;15.70;99.90
16305;DHT22;8261;47.678;-122.174;2023-07-16T13:51:46;15.80;99.90
16305;DHT22;8261;47.678;-122.174;2023-07-16T13:54:19;15.90;99.90
16305;DHT22;8261;47.678;-122.174;2023-07-16T13:56:50;16.00;99.90
16305;DHT22;8261;47.678;-122.174;2023-07-16T13:59:21;16.10;99.90
16305;DHT22;8261;47.678;-122.174;2023-07-16T14:01:59;16.00;99.90
16305;DHT22;8261;47.678;-122.174;2023-07-16T14:04:32;16.10;99.90
16305;DHT22;8261;47.678;-122.174;2023-07-16T14:07:03;16.10;99.90
16305;DHT22;8261;47.678;-122.174;2023-07-16T14:09:36;16.20;99.90
16305;DHT22;8261;47.678;-122.174;2023-07-16T14:12:07;16.30;99.90
16305;DHT22;8261;47.678;-122.174;2023-07-16T14:14:38;16.30;99.90
16305;DHT22;8261;47.678;-122.174;2023-07-16T14:17:08;16.40;99.90
16305;DHT22;8261;47.678;-122.174;2023-07-16T14:19:40;16.50;99.90
16305;DHT22;8261;47.678;-122.174;2023-07-16T14:22:11;16.50;99.90
16305;DHT22;8261;47.678;-122.174;2023-07-16T14:24:44;16.60;99.90
16305;DHT22;8261;47.678;-122.174;2023-07-16T14:27:19;16.70;99.90
16305;DHT22;8261;47.678;-122.174;2023-07-16T14:29:50;16.70;99.90
16305;DHT22;8261;47.678;-122.174;2023-07-16T14:32:34;16.90;99.90
16305;DHT22;8261;47.678;-122.174;2023-07-16T14:35:05;16.90;99.90
16305;DHT22;8261;47.678;-122.174;2023-07-16T14:37:52;16.90;99.90
16305;DHT22;8261;47.678;-122.174;2023-07-16T14:40:25;17.00;99.90
16305;DHT22;8261;47.678;-122.174;2023-07-16T14:42:56;17.00;99.90
16305;DHT22;8261;47.678;-122.174;2023-07-16T14:45:26;17.20;99.90
16305;DHT22;8261;47.678;-122.174;2023-07-16T14:47:57;17.30;99.90
16305;DHT22;8261;47.678;-122.174;2023-07-16T14:50:28;17.50;99.90
16305;DHT22;8261;47.678;-122.174;2023-07-16T14:52:59;17.70;99.90
16305;DHT22;8261;47.678;-122.174;2023-07-16T14:55:32;18.30;99.90
16305;DHT22;8261;47.678;-122.174;2023-07-16T14:58:02;18.70;99.90
16305;DHT22;8261;47.678;-122.174;2023-07-16T15:00:33;19.30;99.90
16305;DHT22;8261;47.678;-122.174;2023-07-16T15:03:04;19.90;99.90
16305;DHT22;8261;47.678;-122.174;2023-07-16T15:05:35;20.40;99.90
16305;DHT22;8261;47.678;-122.174;2023-07-16T15:08:06;20.70;99.90
16305;DHT22;8261;47.678;-122.174;2023-07-16T15:10:38;20.90;99.90
16305;DHT22;8261;47.678;-122.174;2023-07-16T15:13:09;21.00;99.90
16305;DHT22;8261;47.678;-122.174;2023-07-16T15:15:40;21.30;99.90
16305;DHT22;8261;47.678;-122.174;2023-07-16T15:18:17;21.60;99.90
16305;DHT22;8261;47.678;-122.174;2023-07-16T15:20:48;21.90;99.90
16305;DHT22;8261;47.678;-122.174;2023-07-16T15:23:19;22.00;99.90
16305;DHT22;8261;47.678;-122.174;2023-07-16T15:25:52;22.30;99.90
16305;DHT22;8261;47.678;-122.174;2023-07-16T15:28:22;22.30;99.90
16305;DHT22;8261;47.678;-122.174;2023-07-16T15:30:53;22.40;99.90